Time;durP1;ratioP1;P1;durP2;ratioP2;P2;SDS_P1;SDS_P2;PMS_P1;PMS_P2;Temp;Humidity;BMP_temperature;BMP_pressure;BME280_temperature;BME280_humidity;BME280_pressure;Samples;Min_cycle;Max_cycle;Signal;HPM_P1;HPM_P2
2022/01/04 00:02:12;;;;;;;15.68;9.63;;;;;;;7.34;93.44;99550.41;4925272;28;20059;-86
2022/01/04 00:04:39;;;;;;;12.27;7.85;;;;;;;7.28;93.84;99540.97;4912707;29;20043;-86
2022/01/04 00:07:05;;;;;;;14.82;8.52;;;;;;;7.22;94.02;99538.44;4940902;28;20062;-86
2022/01/04 00:09:33;;;;;;;13.77;8.45;;;;;;;7.17;94.68;99537.63;4921181;28;20059;-86
2022/01/04 00:13:22;;;;;;;12.68;8.48;;;;;;;7.09;95.22;99532.53;4924730;28;20530;-86
2022/01/04 00:14:47;;;;;;;9.15;7.97;;;;;;;7.05;95.29;99529.13;4912764;29;21678;-86
2022/01/04 00:17:14;;;;;;;11.65;9.13;;;;;;;7.04;95.68;99537.81;4901568;28;20050;-86
2022/01/04 00:19:40;;;;;;;12.90;9.40;;;;;;;7.03;95.96;99535.22;4909891;29;20043;-87
2022/01/04 00:22:08;;;;;;;11.35;8.75;;;;;;;6.99;96.04;99518.78;4908864;29;20228;-86
2022/01/04 00:24:35;;;;;;;12.52;9.88;;;;;;;6.99;96.04;99528.31;4924538;29;20055;-86
2022/01/04 00:27:02;;;;;;;11.85;8.82;;;;;;;7.01;96.06;99506.59;4926808;29;20058;-86
2022/01/04 00:29:28;;;;;;;13.07;8.82;;;;;;;7.04;95.80;99513.50;4923011;28;20490;-86
2022/01/04 00:31:55;;;;;;;10.45;8.82;;;;;;;7.09;95.67;99498.69;4928704;28;20768;-87
2022/01/04 00:34:22;;;;;;;14.45;9.63;;;;;;;7.13;95.34;99508.16;4925723;28;20063;-86
2022/01/04 00:36:48;;;;;;;13.38;8.32;;;;;;;7.16;95.00;99500.34;4911916;29;20062;-86
2022/01/04 00:39:15;;;;;;;14.88;9.05;;;;;;;7.18;95.14;99490.75;4927850;28;20043;-87
2022/01/04 00:41:41;;;;;;;16.42;10.50;;;;;;;7.18;95.08;99492.50;4926809;29;20058;-86
2022/01/04 00:44:08;;;;;;;15.23;9.82;;;;;;;7.18;95.22;99488.16;4911547;29;20062;-86
2022/01/04 00:46:34;;;;;;;13.45;9.30;;;;;;;7.19;95.04;99489.88;4935808;28;20061;-86
2022/01/04 00:51:54;;;;;;;12.65;9.13;;;;;;;7.19;95.18;99470.81;4945246;28;20533;-86
2022/01/04 00:54:22;;;;;;;13.60;8.77;;;;;;;7.19;95.10;99466.47;4946049;28;20510;-86
2022/01/04 00:56:49;;;;;;;17.73;9.32;;;;;;;7.24;95.14;99467.25;4949297;28;20047;-87
2022/01/04 00:59:17;;;;;;;13.15;9.13;;;;;;;7.27;94.82;99464.63;4929837;28;20050;-86
2022/01/04 01:01:45;;;;;;;13.30;9.40;;;;;;;7.29;94.89;99452.44;4934856;28;20074;-86
2022/01/04 01:04:11;;;;;;;12.63;8.15;;;;;;;7.31;94.86;99446.34;4931685;28;20066;-86
2022/01/04 01:06:38;;;;;;;15.23;8.82;;;;;;;7.32;94.45;99441.09;4947108;28;20560;-86
2022/01/04 01:09:06;;;;;;;13.32;9.18;;;;;;;7.29;94.71;99436.81;4932665;28;20051;-87
2022/01/04 01:11:33;;;;;;;20.40;9.52;;;;;;;7.26;95.12;99431.66;4959183;28;20418;-87
2022/01/04 01:14:00;;;;;;;12.93;9.00;;;;;;;7.24;95.34;99425.59;4934147;28;20077;-86
2022/01/04 01:16:26;;;;;;;11.65;8.90;;;;;;;7.23;95.16;99421.28;4945184;28;20042;-86
2022/01/04 01:18:53;;;;;;;12.80;8.57;;;;;;;7.23;95.35;99415.22;4931507;28;20061;-86
2022/01/04 01:21:19;;;;;;;17.02;9.82;;;;;;;7.21;95.12;99415.25;4945527;28;20051;-86
2022/01/04 01:23:46;;;;;;;12.70;8.98;;;;;;;7.18;95.44;99404.03;4947715;28;20904;-87
2022/01/04 01:26:12;;;;;;;12.82;9.68;;;;;;;7.13;95.75;99398.88;4935653;28;20065;-86
2022/01/04 01:28:40;;;;;;;17.15;9.57;;;;;;;7.08;95.59;99396.34;4941274;28;20059;-87
2022/01/04 01:31:09;;;;;;;13.95;9.18;;;;;;;7.05;96.34;99399.00;4934009;28;20122;-86
2022/01/04 01:33:36;;;;;;;13.38;9.23;;;;;;;7.03;96.38;99399.91;4937948;28;20556;-87
2022/01/04 01:36:03;;;;;;;12.15;9.27;;;;;;;6.99;96.93;99393.91;4930869;28;20058;-86
2022/01/04 01:38:30;;;;;;;14.90;9.30;;;;;;;6.96;96.50;99386.13;4946499;28;20375;-87
2022/01/04 01:40:56;;;;;;;12.25;9.77;;;;;;;6.92;96.97;99380.13;4945526;28;20051;-86
2022/01/04 01:43:25;;;;;;;12.68;9.45;;;;;;;6.89;97.31;99377.53;4946270;28;20057;-87
2022/01/04 01:45:53;;;;;;;15.15;9.85;;;;;;;6.86;97.14;99372.41;4931121;28;20055;-86
2022/01/04 01:48:20;;;;;;;13.80;9.77;;;;;;;6.84;97.45;99368.94;4942710;28;20067;-87
2022/01/04 01:50:46;;;;;;;18.02;10.60;;;;;;;6.84;97.59;99363.75;4948207;28;20058;-86
2022/01/04 01:53:15;;;;;;;11.65;8.30;;;;;;;6.82;97.75;99365.53;4943836;28;20051;-86
2022/01/04 01:55:42;;;;;;;15.80;9.45;;;;;;;6.81;98.21;99371.59;4931605;28;20058;-86
2022/01/04 01:58:09;;;;;;;17.42;10.40;;;;;;;6.79;98.01;99366.44;4930212;28;20050;-86
2022/01/04 02:00:35;;;;;;;16.50;9.88;;;;;;;6.81;97.96;99360.34;4944677;28;20067;-87
2022/01/04 02:03:02;;;;;;;12.43;9.75;;;;;;;6.79;98.08;99362.94;4948543;28;20055;-87
2022/01/04 02:05:30;;;;;;;14.95;9.88;;;;;;;6.81;97.76;99361.19;4932905;28;20043;-87
2022/01/04 02:07:57;;;;;;;14.13;9.70;;;;;;;6.79;98.08;99355.16;4934257;28;20051;-87
2022/01/04 02:10:24;;;;;;;17.27;11.13;;;;;;;6.81;98.21;99345.59;4929567;28;20043;-86
2022/01/04 02:12:50;;;;;;;14.60;8.93;;;;;;;6.81;98.12;99339.53;4946807;28;20608;-86
2022/01/04 02:15:23;;;;;;;16.10;10.38;;;;;;;6.79;97.97;99336.94;4951101;28;20051;-86
2022/01/04 02:17:50;;;;;;;14.60;9.38;;;;;;;6.81;98.27;99326.53;4930761;28;20055;-86
2022/01/04 02:20:17;;;;;;;15.23;10.32;;;;;;;6.81;97.94;99324.78;4943755;28;20051;-86
2022/01/04 02:22:45;;;;;;;15.75;10.45;;;;;;;6.82;97.81;99323.03;4946380;28;20074;-86
2022/01/04 02:25:12;;;;;;;15.25;8.20;;;;;;;6.82;98.26;99321.31;4947081;28;20174;-86
2022/01/04 02:27:41;;;;;;;14.75;8.32;;;;;;;6.81;97.85;99318.72;4948288;28;20058;-86
2022/01/04 02:30:14;;;;;;;15.25;9.40;;;;;;;6.79;98.42;99321.31;4928042;28;20114;-86
2022/01/04 02:32:41;;;;;;;16.80;10.18;;;;;;;6.77;98.25;99316.16;4949699;28;20066;-86
2022/01/04 02:35:08;;;;;;;16.05;9.02;;;;;;;6.77;98.55;99321.34;4933171;28;20061;-86
2022/01/04 02:37:34;;;;;;;12.80;8.90;;;;;;;6.76;98.38;99309.22;4948434;28;20065;-86
2022/01/04 02:40:01;;;;;;;12.10;8.70;;;;;;;6.74;98.71;99298.00;4932012;28;20050;-86
2022/01/04 02:42:27;;;;;;;15.23;9.70;;;;;;;6.74;98.91;99305.81;4944411;28;20051;-86
2022/01/04 02:44:54;;;;;;;15.13;9.73;;;;;;;6.77;99.20;99299.69;4946893;28;20088;-86
2022/01/04 02:47:20;;;;;;;14.25;8.57;;;;;;;6.79;98.98;99301.41;4929997;28;20046;-86
2022/01/04 02:49:47;;;;;;;14.85;9.25;;;;;;;6.83;99.08;99290.94;4943042;28;20048;-87
2022/01/04 02:52:14;;;;;;;14.75;9.43;;;;;;;6.85;98.62;99297.00;4947254;28;20101;-86
2022/01/04 02:54:41;;;;;;;13.32;8.90;;;;;;;6.83;98.72;99289.22;4944958;28;20047;-86
2022/01/04 02:57:07;;;;;;;14.60;9.27;;;;;;;6.84;98.61;99283.09;4950405;28;20059;-86
2022/01/04 02:59:34;;;;;;;13.23;8.98;;;;;;;6.83;98.65;99283.13;4942964;28;20047;-86
2022/01/04 03:02:00;;;;;;;11.00;9.00;;;;;;;6.81;98.96;99279.72;4933571;28;20050;-86
2022/01/04 03:04:27;;;;;;;14.88;8.88;;;;;;;6.81;98.90;99277.97;4942413;28;20399;-85
2022/01/04 03:06:54;;;;;;;13.45;9.98;;;;;;;6.79;99.28;99269.31;4931568;28;20402;-86
2022/01/04 03:09:20;;;;;;;13.55;8.88;;;;;;;6.79;99.41;99271.91;4929170;28;20118;-86
2022/01/04 03:11:47;;;;;;;13.65;9.60;;;;;;;6.75;99.14;99265.94;4934840;28;20144;-86
2022/01/04 03:14:13;;;;;;;13.82;8.75;;;;;;;6.75;99.95;99260.72;4933204;28;20042;-86
2022/01/04 03:16:40;;;;;;;14.02;9.35;;;;;;;6.74;99.46;99250.31;4925838;28;20051;-87
2022/01/04 03:19:07;;;;;;;11.68;9.48;;;;;;;6.73;100.00;99249.47;4942955;28;20050;-86
2022/01/04 03:21:42;;;;;;;18.00;9.52;;;;;;;6.71;99.84;99248.63;4947823;28;20047;-86
2022/01/04 03:24:13;;;;;;;11.57;8.90;;;;;;;6.67;99.69;99248.72;4930259;28;20050;-87
2022/01/04 03:26:41;;;;;;;14.98;9.35;;;;;;;6.65;100.00;99242.66;4945158;28;20059;-86
2022/01/04 03:29:10;;;;;;;18.25;11.48;;;;;;;6.65;100.00;99234.88;4943611;28;20417;-86
2022/01/04 03:31:37;;;;;;;11.48;9.40;;;;;;;6.64;100.00;99233.16;4951041;28;20046;-86
2022/01/04 03:34:04;;;;;;;15.20;9.60;;;;;;;6.61;100.00;99232.31;4929131;28;20089;-86
2022/01/04 03:36:31;;;;;;;12.63;9.27;;;;;;;6.60;100.00;99228.00;4935204;28;20652;-86
2022/01/04 03:38:59;;;;;;;13.50;9.93;;;;;;;6.60;100.00;99220.19;4944131;28;20047;-86
2022/01/04 03:41:27;;;;;;;14.07;9.75;;;;;;;6.59;100.00;99209.81;4947925;28;20057;-86
2022/01/04 03:43:55;;;;;;;9.40;8.30;;;;;;;6.58;100.00;99210.69;4927624;28;20051;-86
2022/01/04 03:46:21;;;;;;;11.18;7.90;;;;;;;6.56;100.00;99204.69;4944915;28;20066;-86
2022/01/04 03:48:48;;;;;;;13.85;10.05;;;;;;;6.57;100.00;99208.97;4930293;28;20054;-86
2022/01/04 03:51:14;;;;;;;12.25;8.77;;;;;;;6.56;100.00;99202.09;4933471;28;20058;-87
2022/01/04 03:53:41;;;;;;;10.55;8.43;;;;;;;6.56;100.00;99202.09;4947592;28;20397;-86
2022/01/04 03:56:08;;;;;;;11.35;9.13;;;;;;;6.55;100.00;99197.75;4943482;28;20507;-86
2022/01/04 03:58:35;;;;;;;11.70;8.38;;;;;;;6.54;100.00;99188.25;4943658;28;20578;-86
2022/01/04 04:01:03;;;;;;;9.73;7.05;;;;;;;6.54;100.00;99194.28;4941950;28;20073;-86
2022/01/04 04:03:31;;;;;;;9.82;7.22;;;;;;;6.52;100.00;99177.88;4946758;28;20101;-85
2022/01/04 04:05:57;;;;;;;11.32;7.80;;;;;;;6.49;100.00;99175.31;4928867;28;20062;-86
2022/01/04 04:08:24;;;;;;;13.63;8.80;;;;;;;6.50;100.00;99177.03;4944021;28;20062;-86
2022/01/04 04:10:51;;;;;;;11.73;8.02;;;;;;;6.51;100.00;99162.31;4934181;28;20058;-86
2022/01/04 04:13:17;;;;;;;12.30;7.63;;;;;;;6.51;100.00;99162.31;4930070;28;20051;-86
2022/01/04 04:15:44;;;;;;;8.68;6.35;;;;;;;6.51;100.00;99152.75;4941151;28;20074;-87
2022/01/04 04:18:13;;;;;;;7.32;6.55;;;;;;;6.52;100.00;99151.00;4943423;28;20708;-85
2022/01/04 04:20:40;;;;;;;8.27;6.88;;;;;;;6.53;100.00;99151.00;4931946;28;20061;-86
2022/01/04 04:23:10;;;;;;;15.32;7.40;;;;;;;6.57;100.00;99136.19;4930844;28;20047;-86
2022/01/04 04:25:37;;;;;;;14.25;7.97;;;;;;;6.60;100.00;99136.16;4930512;28;20047;-86
2022/01/04 04:28:04;;;;;;;6.82;5.43;;;;;;;6.65;100.00;99142.13;4931104;28;20043;-85
2022/01/04 04:30:30;;;;;;;6.85;6.05;;;;;;;6.69;100.00;99125.59;4919253;28;20063;-86
2022/01/04 04:32:57;;;;;;;6.28;5.15;;;;;;;6.75;100.00;99122.88;4935229;28;20066;-86
2022/01/04 04:35:24;;;;;;;9.38;6.20;;;;;;;6.80;100.00;99117.59;4947564;28;20058;-86
2022/01/04 04:37:50;;;;;;;13.10;6.65;;;;;;;6.87;99.90;99116.59;4950590;28;20057;-86
2022/01/04 04:40:17;;;;;;;7.35;5.95;;;;;;;6.89;100.00;99107.00;4934938;28;20410;-86
2022/01/04 04:42:43;;;;;;;8.52;5.65;;;;;;;6.93;99.94;99118.22;4950358;28;20047;-86
2022/01/04 04:45:10;;;;;;;7.63;5.30;;;;;;;6.94;99.01;99110.38;4934169;28;20391;-86
2022/01/04 04:47:37;;;;;;;9.48;5.45;;;;;;;6.94;99.07;99097.38;4930061;28;20062;-86
2022/01/04 04:50:04;;;;;;;5.80;5.30;;;;;;;6.95;99.14;99093.88;4911244;29;20050;-87
2022/01/04 04:52:31;;;;;;;9.18;5.57;;;;;;;6.95;99.29;99093.03;4945128;28;20066;-87
2022/01/04 04:54:57;;;;;;;5.47;4.97;;;;;;;6.94;99.20;99099.97;4931500;29;20499;-86
2022/01/04 04:57:24;;;;;;;5.70;5.05;;;;;;;6.97;98.97;99087.81;4914034;28;20426;-86
2022/01/04 04:59:50;;;;;;;6.90;4.88;;;;;;;6.98;98.91;99095.56;4911102;29;20055;-86
2022/01/04 05:02:17;;;;;;;7.13;5.93;;;;;;;6.97;98.84;99093.00;4925084;28;20043;-87
2022/01/04 05:04:43;;;;;;;7.55;4.90;;;;;;;7.01;99.06;99089.44;4929443;29;20079;-86
2022/01/04 05:07:10;;;;;;;8.25;5.20;;;;;;;7.01;98.43;99071.25;4915307;29;20055;-86
2022/01/04 05:09:36;;;;;;;5.50;4.97;;;;;;;7.02;98.59;99068.59;4909596;28;20051;-86
2022/01/04 05:12:05;;;;;;;5.50;5.00;;;;;;;7.03;98.12;99056.47;4930954;29;20035;-86
2022/01/04 05:14:32;;;;;;;6.78;5.40;;;;;;;7.02;98.39;99058.19;4913681;28;20058;-86
2022/01/04 05:16:59;;;;;;;6.03;4.82;;;;;;;7.02;98.53;99053.00;4927988;28;20067;-86
2022/01/04 05:19:25;;;;;;;6.82;5.43;;;;;;;7.01;97.94;99040.88;4925997;28;20098;-86
2022/01/04 05:21:51;;;;;;;6.85;5.28;;;;;;;7.01;97.99;99046.06;4929588;28;20056;-85
2022/01/04 05:24:18;;;;;;;7.60;5.85;;;;;;;7.04;97.75;99046.03;4931068;28;20110;-86
2022/01/04 05:26:44;;;;;;;6.22;5.63;;;;;;;7.04;97.77;99040.81;4916494;28;20265;-85
2022/01/04 05:29:11;;;;;;;5.93;5.32;;;;;;;7.07;97.87;99045.09;4916205;28;20051;-85
2022/01/04 05:31:37;;;;;;;8.82;5.20;;;;;;;7.07;97.80;99032.94;4930312;29;20047;-86
2022/01/04 05:34:04;;;;;;;7.60;5.75;;;;;;;7.09;97.83;99027.69;4912094;29;20059;-86
2022/01/04 05:36:36;;;;;;;11.48;6.18;;;;;;;7.12;97.45;99027.66;4929595;28;20182;-85
2022/01/04 05:39:07;;;;;;;6.70;6.00;;;;;;;7.15;96.94;99029.34;4948572;28;20138;-85
2022/01/04 05:41:34;;;;;;;6.28;5.68;;;;;;;7.15;97.20;99027.56;4943736;28;20043;-85
2022/01/04 05:44:01;;;;;;;8.27;6.43;;;;;;;7.16;96.96;99018.00;4913754;28;20047;-85
2022/01/04 05:46:28;;;;;;;9.85;6.47;;;;;;;7.19;96.56;99020.56;4927906;28;20482;-85
2022/01/04 05:48:54;;;;;;;7.68;6.30;;;;;;;7.18;96.59;99014.50;4931628;28;20599;-86
2022/01/04 05:51:21;;;;;;;7.43;5.97;;;;;;;7.20;96.66;99014.47;4947127;28;20050;-85
2022/01/04 05:53:47;;;;;;;9.77;6.88;;;;;;;7.20;96.55;99001.47;4942824;28;20050;-85
2022/01/04 05:56:14;;;;;;;8.70;6.72;;;;;;;7.22;96.35;98999.66;4947906;28;20118;-85
2022/01/04 05:58:40;;;;;;;8.23;6.60;;;;;;;7.22;96.11;98997.94;4931621;28;20058;-85
2022/01/04 06:01:07;;;;;;;7.32;6.38;;;;;;;7.21;95.71;99001.44;4932060;28;20051;-85
2022/01/04 06:03:33;;;;;;;7.03;6.32;;;;;;;7.23;95.92;99001.38;4913745;29;20051;-85
2022/01/04 06:06:00;;;;;;;6.53;5.93;;;;;;;7.24;95.71;98997.91;4915425;28;20063;-85
2022/01/04 06:08:32;;;;;;;6.80;6.13;;;;;;;7.23;95.25;99007.44;4928882;28;20101;-86
2022/01/04 06:10:59;;;;;;;6.70;6.00;;;;;;;7.25;95.50;99015.25;4915447;29;20054;-85
2022/01/04 06:16:10;;;;;;;11.63;6.38;;;;;;;7.23;95.37;99004.84;4928316;28;20479;-85
2022/01/04 06:18:37;;;;;;;6.72;6.03;;;;;;;7.25;94.90;99007.44;4929907;28;20051;-86
2022/01/04 06:21:05;;;;;;;9.65;6.20;;;;;;;7.22;94.71;99003.16;4930681;28;20048;-86
2022/01/04 06:23:32;;;;;;;6.35;5.78;;;;;;;7.22;94.73;98999.66;4914197;28;20126;-86
2022/01/04 06:25:58;;;;;;;6.10;5.32;;;;;;;7.22;94.97;99000.53;4933329;28;20051;-85
2022/01/04 06:28:25;;;;;;;6.03;5.15;;;;;;;7.19;94.93;98999.75;4928201;28;20066;-85
2022/01/04 06:30:52;;;;;;;8.20;6.38;;;;;;;7.16;95.24;99002.41;4919575;28;20062;-85
2022/01/04 06:33:23;;;;;;;7.15;6.00;;;;;;;7.10;95.28;98993.00;4915223;28;20051;-85
2022/01/04 06:35:50;;;;;;;10.02;7.30;;;;;;;7.04;95.49;98974.91;4916195;28;20075;-86
2022/01/04 06:38:17;;;;;;;9.63;6.30;;;;;;;6.97;95.94;98966.38;4927896;28;20051;-85
2022/01/04 06:40:44;;;;;;;6.82;6.15;;;;;;;6.91;96.29;98964.78;4947192;28;20046;-86
2022/01/04 06:43:11;;;;;;;7.10;6.10;;;;;;;6.88;96.61;98966.56;4933173;28;20054;-85
2022/01/04 06:45:37;;;;;;;12.07;8.00;;;;;;;6.86;96.63;98973.56;4915881;29;20054;-85
2022/01/04 06:48:05;;;;;;;7.63;5.47;;;;;;;6.80;97.13;98969.34;4932526;28;20058;-86
2022/01/04 06:50:32;;;;;;;6.75;6.05;;;;;;;6.77;97.21;98970.25;4958615;28;20526;-86
2022/01/04 06:52:58;;;;;;;10.13;7.50;;;;;;;6.76;97.38;98965.94;4949505;28;20059;-86
2022/01/04 06:55:25;;;;;;;10.32;7.05;;;;;;;6.74;97.70;98957.31;4918087;29;20062;-85
2022/01/04 06:57:51;;;;;;;10.32;6.68;;;;;;;6.74;97.51;98952.13;4914873;29;20066;-86
2022/01/04 07:00:18;;;;;;;8.73;7.35;;;;;;;6.74;97.60;98959.91;4929064;28;20075;-85
2022/01/04 07:02:45;;;;;;;10.15;7.15;;;;;;;6.74;97.81;98967.72;4912851;28;20149;-85
2022/01/04 07:05:11;;;;;;;7.53;6.70;;;;;;;6.76;97.73;98963.31;4931997;28;21816;-85
2022/01/04 07:07:38;;;;;;;8.48;7.05;;;;;;;6.74;97.56;98956.44;4935435;28;20517;-85
2022/01/04 07:10:05;;;;;;;14.38;9.13;;;;;;;6.72;97.31;98960.84;4946035;28;20050;-86
2022/01/04 07:12:31;;;;;;;11.98;9.00;;;;;;;6.69;97.64;98955.69;4917206;29;20513;-84
2022/01/04 07:14:58;;;;;;;12.55;7.72;;;;;;;6.68;97.88;98947.03;4912286;28;20070;-85
2022/01/04 07:17:24;;;;;;;10.55;7.50;;;;;;;6.66;97.91;98941.00;4943434;28;20062;-86
2022/01/04 07:19:51;;;;;;;9.45;7.40;;;;;;;6.65;97.85;98943.63;4932936;28;20133;-85
2022/01/04 07:22:17;;;;;;;10.00;7.47;;;;;;;6.65;97.73;98946.25;4922441;28;20055;-85
2022/01/04 07:24:44;;;;;;;12.18;7.88;;;;;;;6.65;97.83;98949.72;4926152;29;20051;-85
2022/01/04 07:27:10;;;;;;;10.05;8.00;;;;;;;6.63;97.79;98941.06;4925849;28;20062;-85
2022/01/04 07:29:37;;;;;;;12.32;7.50;;;;;;;6.63;97.92;98943.69;4927462;28;20154;-85
2022/01/04 07:32:04;;;;;;;8.07;7.30;;;;;;;6.62;98.28;98942.84;4932212;28;20102;-85
2022/01/04 07:38:12;;;;;;;8.35;7.28;;;;;;;6.61;98.08;98942.88;4935166;28;20038;-86
2022/01/04 07:40:39;;;;;;;8.90;7.22;;;;;;;6.61;97.78;98950.66;4916431;28;20043;-85
2022/01/04 07:43:05;;;;;;;11.93;8.18;;;;;;;6.63;97.88;98954.06;4931786;28;20377;-86
2022/01/04 07:46:37;;;;;;;11.90;7.55;;;;;;;6.65;98.15;98946.25;4930029;28;20046;-85
2022/01/04 07:49:04;;;;;;;8.60;6.55;;;;;;;6.66;98.20;98954.00;4941626;28;20212;-85
2022/01/04 07:51:31;;;;;;;12.63;9.20;;;;;;;6.71;97.91;98952.16;4932316;28;20046;-85
2022/01/04 07:53:57;;;;;;;10.60;8.32;;;;;;;6.75;98.16;98956.44;4932967;28;20050;-86
2022/01/04 07:56:24;;;;;;;8.10;7.28;;;;;;;6.77;97.64;98949.44;4927835;28;20055;-85
2022/01/04 07:58:50;;;;;;;10.82;8.45;;;;;;;6.82;97.25;98948.50;4947986;28;20050;-85
2022/01/04 08:01:17;;;;;;;9.85;8.43;;;;;;;6.83;97.02;98945.00;4944063;28;20047;-86
2022/01/04 08:03:43;;;;;;;13.10;9.15;;;;;;;6.85;96.88;98949.28;4925768;28;20509;-86
2022/01/04 08:06:10;;;;;;;10.40;8.43;;;;;;;6.88;96.72;98936.25;4929824;28;20062;-86
2022/01/04 08:08:36;;;;;;;12.13;8.40;;;;;;;6.91;96.47;98935.28;4946651;28;20105;-85
2022/01/04 08:11:03;;;;;;;14.00;8.48;;;;;;;6.94;96.46;98936.09;4945848;28;20054;-86
2022/01/04 08:13:30;;;;;;;10.63;9.52;;;;;;;7.01;95.98;98934.19;4946034;28;20050;-86
2022/01/04 08:15:57;;;;;;;11.20;8.63;;;;;;;7.03;96.11;98929.81;4942225;28;20138;-86
2022/01/04 08:18:23;;;;;;;13.68;10.25;;;;;;;7.05;95.55;98914.19;4930620;28;20056;-86
2022/01/04 08:20:55;;;;;;;11.40;9.23;;;;;;;7.05;95.49;98912.44;4925628;28;20051;-86
2022/01/04 08:23:22;;;;;;;13.15;9.23;;;;;;;7.04;95.35;98917.66;4926960;29;20098;-86
2022/01/04 08:25:49;;;;;;;14.50;10.27;;;;;;;7.03;95.24;98922.03;4926282;28;20075;-86
2022/01/04 08:28:15;;;;;;;12.52;9.82;;;;;;;7.06;95.17;98924.53;4921012;28;20223;-86
2022/01/04 08:30:43;;;;;;;16.75;9.27;;;;;;;7.09;95.07;98915.81;4928481;28;20070;-86
2022/01/04 08:33:11;;;;;;;13.90;10.23;;;;;;;7.09;95.06;98905.41;4922889;28;20093;-85
2022/01/04 08:35:38;;;;;;;13.15;9.55;;;;;;;7.10;94.71;98888.91;4925242;28;20050;-86
2022/01/04 08:38:09;;;;;;;11.27;9.60;;;;;;;7.11;94.54;98888.03;4941591;28;20059;-86
2022/01/04 08:40:36;;;;;;;13.00;9.05;;;;;;;7.12;94.59;98894.94;4927457;28;20055;-86
2022/01/04 08:43:06;;;;;;;12.43;10.25;;;;;;;7.10;94.24;98891.50;4941403;28;20126;-86
2022/01/04 08:45:34;;;;;;;13.95;9.85;;;;;;;7.09;94.25;98889.78;4921758;28;20534;-86
2022/01/04 08:48:02;;;;;;;13.77;9.77;;;;;;;7.09;94.43;98892.41;4924608;28;20047;-86
2022/01/04 08:50:29;;;;;;;12.40;8.73;;;;;;;7.09;94.56;98889.78;4919988;28;20205;-85
2022/01/04 08:52:56;;;;;;;14.35;9.50;;;;;;;7.09;94.47;98890.66;4922430;29;20182;-86
2022/01/04 08:55:25;;;;;;;10.32;8.77;;;;;;;7.10;94.97;98889.78;4910084;29;20055;-86
2022/01/04 08:57:52;;;;;;;13.23;9.80;;;;;;;7.14;95.09;98877.53;4943359;28;20051;-86
2022/01/04 09:00:20;;;;;;;15.30;10.38;;;;;;;7.14;94.28;98866.28;4907977;28;20068;-86
2022/01/04 09:02:46;;;;;;;14.10;9.85;;;;;;;7.14;94.74;98850.66;4905376;28;20047;-86
2022/01/04 09:05:13;;;;;;;13.15;8.77;;;;;;;7.15;94.20;98852.38;4920217;28;20070;-86
2022/01/04 09:07:39;;;;;;;13.80;10.02;;;;;;;7.17;94.47;98848.84;4920850;28;20043;-86
2022/01/04 09:10:07;;;;;;;12.40;9.32;;;;;;;7.21;94.43;98853.09;4908378;29;20055;-86
2022/01/04 09:12:43;;;;;;;13.90;9.50;;;;;;;7.25;94.56;98854.72;4924573;29;20047;-86
2022/01/04 09:20:35;;;;;;;13.10;8.50;;;;;;;7.30;93.88;98849.41;4948838;28;20041;-86
2022/01/04 09:23:01;;;;;;;12.65;9.55;;;;;;;7.34;93.69;98860.59;4945918;28;20055;-86
2022/01/04 09:25:28;;;;;;;17.02;9.55;;;;;;;7.35;93.06;98857.94;4944703;28;20051;-86
2022/01/04 09:27:54;;;;;;;14.07;9.10;;;;;;;7.37;93.44;98860.53;4926288;28;20063;-85
2022/01/04 09:30:21;;;;;;;14.88;9.10;;;;;;;7.40;93.20;98876.91;4931654;28;20059;-85
2022/01/04 09:32:48;;;;;;;14.43;9.05;;;;;;;7.42;93.05;98874.28;4942663;28;20078;-86
2022/01/04 09:35:14;;;;;;;12.75;7.65;;;;;;;7.47;93.12;98875.03;4931909;28;20054;-87
2022/01/04 09:37:41;;;;;;;11.88;8.50;;;;;;;7.49;92.92;98865.41;4928925;28;20055;-86
2022/01/04 09:40:09;;;;;;;12.48;8.52;;;;;;;7.51;92.25;98862.75;4932178;28;20047;-87
2022/01/04 09:42:37;;;;;;;12.40;7.90;;;;;;;7.49;92.50;98859.38;4933431;28;20137;-87
2022/01/04 09:45:05;;;;;;;11.65;7.90;;;;;;;7.46;92.80;98860.28;4928761;28;20055;-87
2022/01/04 09:47:32;;;;;;;10.98;7.80;;;;;;;7.48;92.42;98860.25;4929928;28;20086;-86
2022/01/04 09:49:59;;;;;;;14.48;8.35;;;;;;;7.49;92.49;98867.16;4922394;28;20993;-87
2022/01/04 09:52:26;;;;;;;10.45;8.20;;;;;;;7.48;92.14;98862.84;4927580;28;20036;-86
2022/01/04 09:54:55;;;;;;;10.65;8.05;;;;;;;7.51;92.37;98857.56;4926296;28;20050;-86
2022/01/04 09:57:22;;;;;;;13.15;9.32;;;;;;;7.53;91.79;98848.81;4907906;29;20055;-86
2022/01/04 09:59:50;;;;;;;10.52;8.00;;;;;;;7.54;91.77;98853.13;4925993;28;20051;-86
2022/01/04 10:02:21;;;;;;;9.77;8.05;;;;;;;7.56;91.24;98855.69;4911202;29;20066;-87
2022/01/04 10:04:48;;;;;;;12.18;8.00;;;;;;;7.56;91.70;98859.16;4924661;28;20066;-87
2022/01/04 10:07:16;;;;;;;15.77;8.45;;;;;;;7.60;91.31;98867.72;4907599;28;21130;-86
2022/01/04 10:09:48;;;;;;;9.82;8.25;;;;;;;7.65;90.64;98857.22;4911992;28;20112;-86
2022/01/04 10:12:28;;;;;;;13.32;8.48;;;;;;;7.68;90.62;98870.16;4922392;28;20044;-86
2022/01/04 10:14:55;;;;;;;12.70;8.35;;;;;;;7.70;90.87;98874.41;4901421;29;20059;-85
2022/01/04 10:17:28;;;;;;;11.57;7.72;;;;;;;7.70;89.53;98865.75;4919832;28;20055;-86
2022/01/04 10:19:58;;;;;;;12.63;8.45;;;;;;;7.67;89.37;98869.31;4921402;28;20671;-86
2022/01/04 10:22:27;;;;;;;10.35;8.52;;;;;;;7.64;89.21;98858.09;4927551;28;20051;-86
2022/01/04 10:25:03;;;;;;;14.85;9.02;;;;;;;7.58;89.78;98854.75;4923833;28;20410;-86
2022/01/04 10:27:39;;;;;;;10.95;8.20;;;;;;;7.52;89.81;98852.34;4922613;28;20047;-87
2022/01/04 10:30:29;;;;;;;11.70;7.90;;;;;;;7.53;90.18;98834.94;4933552;28;20051;-87
2022/01/04 10:33:14;;;;;;;14.23;8.68;;;;;;;7.51;89.41;98832.41;4953270;28;20047;-87
2022/01/04 10:35:45;;;;;;;13.82;9.70;;;;;;;7.47;90.23;98827.28;4944633;28;20047;-87
2022/01/04 10:38:21;;;;;;;13.73;8.48;;;;;;;7.47;90.10;98827.28;4939629;28;20055;-86
2022/01/04 10:41:00;;;;;;;13.82;8.65;;;;;;;7.47;90.13;98835.97;4942964;28;20050;-86
2022/01/04 10:43:30;;;;;;;16.17;10.48;;;;;;;7.47;90.10;98825.56;4925986;28;20396;-85
2022/01/04 10:45:58;;;;;;;13.85;9.57;;;;;;;7.45;90.21;98825.56;4921845;28;20182;-86
2022/01/04 10:48:29;;;;;;;14.35;9.38;;;;;;;7.49;90.37;98815.09;4932523;28;20458;-86
2022/01/04 10:51:08;;;;;;;14.90;9.20;;;;;;;7.51;90.23;98814.16;4934246;28;20250;-85
2022/01/04 10:53:47;;;;;;;11.95;9.25;;;;;;;7.55;90.24;98817.56;4921990;29;20051;-86
2022/01/04 10:56:26;;;;;;;15.32;9.38;;;;;;;7.59;90.08;98819.19;4920583;29;20074;-86
2022/01/04 10:58:56;;;;;;;12.60;8.98;;;;;;;7.60;90.02;98816.53;4939996;28;20055;-87
2022/01/04 11:01:29;;;;;;;14.77;9.23;;;;;;;7.62;89.73;98800.84;4917506;29;20396;-87
2022/01/04 11:04:02;;;;;;;15.63;9.75;;;;;;;7.63;89.59;98799.97;4931995;28;20079;-87
2022/01/04 11:06:37;;;;;;;18.98;11.10;;;;;;;7.62;89.51;98793.03;4926118;28;20050;-86
2022/01/04 11:09:06;;;;;;;18.15;9.38;;;;;;;7.60;89.78;98790.50;4917108;28;20119;-86
2022/01/04 11:11:33;;;;;;;19.45;9.93;;;;;;;7.61;90.07;98789.59;4925446;28;20055;-86
2022/01/04 11:14:01;;;;;;;18.67;10.05;;;;;;;7.65;89.10;98768.66;4908533;29;20047;-86
2022/01/04 11:16:29;;;;;;;14.95;9.32;;;;;;;7.63;89.54;98763.50;4923048;28;20438;-86
2022/01/04 11:18:58;;;;;;;25.63;12.50;;;;;;;7.62;89.84;98764.41;4941533;28;20065;-87
2022/01/04 11:21:28;;;;;;;15.77;9.98;;;;;;;7.65;89.76;98774.72;4939548;28;20055;-86
2022/01/04 11:23:56;;;;;;;16.23;9.88;;;;;;;7.62;89.60;98786.06;4941045;28;20101;-86
2022/01/04 11:26:24;;;;;;;15.90;10.00;;;;;;;7.62;89.44;98778.25;4925049;28;20105;-86
2022/01/04 11:28:52;;;;;;;19.63;10.13;;;;;;;7.61;89.93;98779.19;4910879;28;20054;-86
2022/01/04 11:31:56;;;;;;;20.77;11.73;;;;;;;7.59;90.16;98782.72;4933112;28;20138;-85
2022/01/04 11:35:08;;;;;;;18.67;10.10;;;;;;;7.58;90.07;98770.59;4925484;28;20054;-86
2022/01/04 11:37:35;;;;;;;25.90;11.77;;;;;;;7.65;90.12;98766.06;4923285;28;20050;-87
2022/01/04 11:40:26;;;;;;;14.70;10.68;;;;;;;7.71;89.81;98753.72;4924981;28;20087;-86
2022/01/04 11:42:54;;;;;;;18.35;11.27;;;;;;;7.76;89.28;98753.59;4923931;28;20054;-86
2022/01/04 11:45:48;;;;;;;15.27;10.05;;;;;;;7.82;89.14;98750.81;4910436;28;20059;-86
2022/01/04 11:48:43;;;;;;;16.27;9.82;;;;;;;7.92;88.68;98747.03;4974013;23;20049;-84
2022/01/04 11:51:30;;;;;;;16.80;10.43;;;;;;;7.97;88.19;98743.47;4929332;28;20146;-83
2022/01/04 11:54:30;;;;;;;17.13;10.35;;;;;;;7.92;87.82;98744.44;4968122;28;20084;-84
2022/01/04 11:57:12;;;;;;;17.88;11.00;;;;;;;7.94;88.04;98744.41;4931705;28;20050;-86